Time;durP1;ratioP1;P1;durP2;ratioP2;P2;SDS_P1;SDS_P2;PMS_P1;PMS_P2;Temp;Humidity;BMP_temperature;BMP_pressure;BME280_temperature;BME280_humidity;BME280_pressure;Samples;Min_cycle;Max_cycle;Signal;HPM_P1;HPM_P2
2022/11/12 00:00:15;;;;;;;5.30;4.80;;;;;;;;;;5101874;28;20227;-32
2022/11/12 00:02:42;;;;;;;7.50;4.77;;;;;;;;;;5112555;28;20282;-34
2022/11/12 00:05:10;;;;;;;6.73;4.50;;;;;;;;;;5108807;28;20502;-33
2022/11/12 00:07:37;;;;;;;5.10;4.37;;;;;;;;;;5101642;28;20282;-36
2022/11/12 00:10:06;;;;;;;5.60;5.00;;;;;;;;;;5112043;28;20216;-31
2022/11/12 00:12:33;;;;;;;6.60;5.73;;;;;;;;;;5111915;28;20204;-30
2022/11/12 00:15:00;;;;;;;5.83;5.23;;;;;;;;;;5103576;28;20204;-32
2022/11/12 00:17:28;;;;;;;6.80;5.40;;;;;;;;;;5105512;28;20201;-32
2022/11/12 00:19:55;;;;;;;8.03;6.17;;;;;;;;;;5107842;28;20234;-35
2022/11/12 00:22:22;;;;;;;7.30;5.20;;;;;;;;;;5111532;28;20202;-33
2022/11/12 00:24:49;;;;;;;6.67;5.20;;;;;;;;;;5111754;28;20210;-34
2022/11/12 00:27:18;;;;;;;6.93;5.33;;;;;;;;;;5107932;28;20204;-30
2022/11/12 00:29:45;;;;;;;5.50;4.90;;;;;;;;;;5092994;28;20291;-35
2022/11/12 00:32:12;;;;;;;7.00;4.83;;;;;;;;;;5097706;27;20214;-31
2022/11/12 00:34:39;;;;;;;8.63;5.40;;;;;;;;;;5106652;28;20211;-37
2022/11/12 00:37:07;;;;;;;6.27;5.30;;;;;;;;;;5103814;28;20211;-33
2022/11/12 00:39:34;;;;;;;8.07;5.13;;;;;;;;;;5107972;28;20319;-32
2022/11/12 00:42:01;;;;;;;8.30;5.20;;;;;;;;;;5107040;28;20223;-36
2022/11/12 00:44:30;;;;;;;6.70;4.57;;;;;;;;;;5111624;28;20564;-36
2022/11/12 00:46:57;;;;;;;7.20;4.67;;;;;;;;;;5100993;28;20236;-37
2022/11/12 00:49:24;;;;;;;6.13;4.90;;;;;;;;;;5099794;28;20292;-33
2022/11/12 00:51:52;;;;;;;5.33;4.83;;;;;;;;;;5104542;28;20315;-37
2022/11/12 00:54:19;;;;;;;9.33;5.43;;;;;;;;;;5110660;28;20192;-34
2022/11/12 00:56:46;;;;;;;6.63;4.47;;;;;;;;;;5111110;28;20226;-32
2022/11/12 00:59:14;;;;;;;7.13;5.03;;;;;;;;;;5106081;28;20240;-32
2022/11/12 01:01:42;;;;;;;6.40;4.63;;;;;;;;;;5108259;28;20307;-31
2022/11/12 01:04:10;;;;;;;7.37;5.23;;;;;;;;;;5110150;28;20210;-30
2022/11/12 01:06:39;;;;;;;6.87;4.53;;;;;;;;;;5102802;28;20200;-32
2022/11/12 01:09:06;;;;;;;6.30;5.03;;;;;;;;;;5110241;28;20295;-31
2022/11/12 01:11:33;;;;;;;4.80;4.30;;;;;;;;;;5111042;28;20226;-33
2022/11/12 01:14:01;;;;;;;6.60;5.27;;;;;;;;;;5101432;28;20214;-34
2022/11/12 01:16:30;;;;;;;7.47;5.27;;;;;;;;;;5103175;28;20192;-33
2022/11/12 01:18:59;;;;;;;6.57;4.67;;;;;;;;;;5107825;28;20203;-36
2022/11/12 01:21:27;;;;;;;7.17;5.47;;;;;;;;;;5096329;28;20313;-34
2022/11/12 01:23:55;;;;;;;8.57;5.50;;;;;;;;;;5110653;28;20200;-35
2022/11/12 01:26:22;;;;;;;5.97;4.90;;;;;;;;;;5110722;28;20206;-31
2022/11/12 01:28:50;;;;;;;7.23;4.93;;;;;;;;;;5106158;28;20632;-33
2022/11/12 01:31:18;;;;;;;7.33;5.10;;;;;;;;;;5108862;28;20323;-31
2022/11/12 01:33:46;;;;;;;6.53;5.00;;;;;;;;;;5110052;28;20200;-34
2022/11/12 01:36:15;;;;;;;7.87;4.40;;;;;;;;;;5097089;28;20232;-34
2022/11/12 01:38:43;;;;;;;6.67;5.07;;;;;;;;;;5110078;28;20200;-32
2022/11/12 01:41:11;;;;;;;5.10;4.33;;;;;;;;;;5110223;28;20228;-33
2022/11/12 01:43:39;;;;;;;6.07;4.50;;;;;;;;;;5110879;28;20275;-34
2022/11/12 01:46:08;;;;;;;8.23;4.00;;;;;;;;;;5103640;28;20203;-34
2022/11/12 01:48:38;;;;;;;5.23;4.57;;;;;;;;;;5108765;28;20295;-35
2022/11/12 01:51:06;;;;;;;5.30;3.97;;;;;;;;;;5098115;28;20220;-34
2022/11/12 01:53:36;;;;;;;5.37;4.23;;;;;;;;;;5110153;28;20237;-35
2022/11/12 01:56:05;;;;;;;5.03;4.03;;;;;;;;;;5109380;28;20271;-33
2022/11/12 01:58:33;;;;;;;8.63;4.43;;;;;;;;;;5103124;28;20231;-34
2022/11/12 02:01:01;;;;;;;7.30;4.60;;;;;;;;;;5096419;28;20230;-31
2022/11/12 02:03:28;;;;;;;4.90;3.60;;;;;;;;;;5099716;28;20208;-33
2022/11/12 02:05:57;;;;;;;4.33;3.90;;;;;;;;;;5101754;28;20246;-32
2022/11/12 02:08:25;;;;;;;5.50;4.77;;;;;;;;;;5104168;28;20210;-34
2022/11/12 02:10:54;;;;;;;4.97;4.20;;;;;;;;;;5110171;28;20226;-35
2022/11/12 02:16:07;;;;;;;4.73;3.97;;;;;;;;;;5100558;28;20207;-32
2022/11/12 02:18:34;;;;;;;5.73;4.50;;;;;;;;;;5103581;28;20200;-34
2022/11/12 02:21:04;;;;;;;8.20;4.80;;;;;;;;;;5098741;28;20224;-30
2022/11/12 02:23:33;;;;;;;9.10;5.30;;;;;;;;;;5095510;28;20379;-33
2022/11/12 02:26:00;;;;;;;8.10;5.50;;;;;;;;;;5109154;28;20204;-34
2022/11/12 02:28:28;;;;;;;5.50;4.30;;;;;;;;;;5100080;28;20242;-34
2022/11/12 02:30:55;;;;;;;7.00;5.13;;;;;;;;;;5103166;28;20220;-36
2022/11/12 02:33:22;;;;;;;6.57;4.47;;;;;;;;;;5102785;28;20268;-37
2022/11/12 02:35:49;;;;;;;7.17;5.53;;;;;;;;;;5095417;28;20208;-31
2022/11/12 02:38:17;;;;;;;7.37;5.90;;;;;;;;;;5105803;28;20204;-33
2022/11/12 02:40:45;;;;;;;7.50;5.50;;;;;;;;;;5109420;28;20223;-33
2022/11/12 02:43:12;;;;;;;7.23;5.07;;;;;;;;;;5107255;28;20218;-36
2022/11/12 02:45:39;;;;;;;6.60;4.80;;;;;;;;;;5099578;28;20217;-33
2022/11/12 02:48:07;;;;;;;7.50;5.00;;;;;;;;;;5107920;28;20204;-34
2022/11/12 02:50:34;;;;;;;7.50;4.83;;;;;;;;;;5100202;28;20243;-35
2022/11/12 02:53:01;;;;;;;7.43;5.10;;;;;;;;;;5108199;28;20250;-36
2022/11/12 02:55:28;;;;;;;5.30;4.73;;;;;;;;;;5108301;28;20295;-32
2022/11/12 02:57:59;;;;;;;5.67;4.37;;;;;;;;;;5103183;28;20208;-35
2022/11/12 03:00:26;;;;;;;5.47;4.40;;;;;;;;;;5102143;28;20223;-32
2022/11/12 03:02:59;;;;;;;7.33;4.57;;;;;;;;;;5109633;28;20204;-33
2022/11/12 03:05:26;;;;;;;7.17;4.60;;;;;;;;;;5103478;28;20253;-32
2022/11/12 03:07:57;;;;;;;6.00;4.33;;;;;;;;;;5112438;28;20208;-33
2022/11/12 03:10:24;;;;;;;5.20;4.67;;;;;;;;;;5111587;28;20247;-32
2022/11/12 03:12:52;;;;;;;6.33;4.60;;;;;;;;;;5108105;28;20214;-37
2022/11/12 03:15:20;;;;;;;8.40;4.00;;;;;;;;;;5105228;28;20210;-34
2022/11/12 03:17:47;;;;;;;7.40;4.47;;;;;;;;;;5108763;28;20205;-33
2022/11/12 03:20:14;;;;;;;7.23;4.40;;;;;;;;;;5105852;28;20231;-33
2022/11/12 03:22:42;;;;;;;5.10;4.13;;;;;;;;;;5102444;28;20207;-33
2022/11/12 03:25:09;;;;;;;4.77;4.27;;;;;;;;;;5110653;28;20212;-35
2022/11/12 03:27:36;;;;;;;5.37;3.87;;;;;;;;;;5109764;28;20210;-34
2022/11/12 03:30:04;;;;;;;4.73;4.03;;;;;;;;;;5111552;28;20315;-31
2022/11/12 03:32:32;;;;;;;4.03;3.67;;;;;;;;;;5112335;28;20218;-36
2022/11/12 03:34:59;;;;;;;3.80;3.40;;;;;;;;;;5109007;28;20204;-34
2022/11/12 03:37:27;;;;;;;4.83;4.07;;;;;;;;;;5108542;28;20210;-35
2022/11/12 03:39:54;;;;;;;7.67;3.60;;;;;;;;;;5109761;28;20319;-35
2022/11/12 03:42:21;;;;;;;5.73;4.43;;;;;;;;;;5113054;28;20214;-31
2022/11/12 03:44:48;;;;;;;5.23;3.63;;;;;;;;;;5102498;28;20216;-32
2022/11/12 03:47:15;;;;;;;3.80;3.50;;;;;;;;;;5112533;28;20271;-35
2022/11/12 03:49:44;;;;;;;5.03;3.83;;;;;;;;;;5107321;28;20204;-35
2022/11/12 03:52:11;;;;;;;4.97;4.10;;;;;;;;;;5108021;28;20214;-35
2022/11/12 03:54:38;;;;;;;7.87;5.07;;;;;;;;;;5107213;28;20210;-34
2022/11/12 03:57:05;;;;;;;6.27;5.00;;;;;;;;;;5109275;28;21152;-35
2022/11/12 03:59:32;;;;;;;6.07;4.60;;;;;;;;;;5110057;28;20213;-35
2022/11/12 04:01:59;;;;;;;5.93;4.93;;;;;;;;;;5111287;28;20224;-35
2022/11/12 04:08:34;;;;;;;6.17;5.00;;;;;;;;;;5110430;28;20216;-31
2022/11/12 04:10:00;;;;;;;6.97;4.67;;;;;;;;;;5111196;28;20292;-35
2022/11/12 04:15:26;;;;;;;6.47;5.13;;;;;;;;;;5045432;28;20198;-34
2022/11/12 04:23:24;;;;;;;6.20;5.00;;;;;;;;;;5105798;28;20277;-32
2022/11/12 04:28:36;;;;;;;6.67;4.90;;;;;;;;;;5107373;28;20206;-33
2022/11/12 04:31:02;;;;;;;5.40;4.60;;;;;;;;;;5108395;28;20228;-34
2022/11/12 04:33:29;;;;;;;6.23;5.20;;;;;;;;;;5104080;28;20263;-33
2022/11/12 04:35:56;;;;;;;6.30;4.57;;;;;;;;;;5098875;28;20205;-35
2022/11/12 04:38:25;;;;;;;5.83;4.40;;;;;;;;;;5111857;28;20254;-34
2022/11/12 04:46:36;;;;;;;5.37;4.60;;;;;;;;;;5068765;28;20193;-32
2022/11/12 04:49:03;;;;;;;7.33;4.87;;;;;;;;;;5068940;28;20209;-35
2022/11/12 04:54:15;;;;;;;4.23;3.83;;;;;;;;;;5100522;28;20281;-34
2022/11/12 04:56:42;;;;;;;5.47;3.83;;;;;;;;;;5111884;28;20206;-33
2022/11/12 04:59:10;;;;;;;5.00;4.40;;;;;;;;;;5107615;28;20211;-30
2022/11/12 05:01:37;;;;;;;5.67;4.50;;;;;;;;;;5111738;28;20223;-34
2022/11/12 05:04:04;;;;;;;4.77;4.10;;;;;;;;;;5112036;28;20202;-33
2022/11/12 05:09:18;;;;;;;5.13;4.50;;;;;;;;;;5111400;28;20260;-32
2022/11/12 05:11:45;;;;;;;5.13;4.40;;;;;;;;;;5112204;28;20220;-34
2022/11/12 05:14:12;;;;;;;5.53;4.37;;;;;;;;;;5109590;28;20204;-30
2022/11/12 05:16:39;;;;;;;4.50;4.10;;;;;;;;;;5109526;28;20208;-34
2022/11/12 05:19:06;;;;;;;5.10;4.30;;;;;;;;;;5111314;28;20200;-34
2022/11/12 05:24:19;;;;;;;6.10;4.40;;;;;;;;;;5109944;28;20297;-33
2022/11/12 05:26:47;;;;;;;4.93;4.33;;;;;;;;;;5111390;28;20200;-32
2022/11/12 05:29:14;;;;;;;4.80;3.90;;;;;;;;;;5102170;28;20299;-34
2022/11/12 05:31:41;;;;;;;5.33;4.20;;;;;;;;;;5105956;28;20216;-36
2022/11/12 05:34:08;;;;;;;4.37;3.83;;;;;;;;;;5110907;28;20207;-32
2022/11/12 05:36:35;;;;;;;4.40;3.73;;;;;;;;;;5097760;28;20318;-35
2022/11/12 05:39:02;;;;;;;5.00;3.77;;;;;;;;;;5110611;28;20200;-33
2022/11/12 05:41:31;;;;;;;6.47;4.37;;;;;;;;;;5111053;28;20227;-33
2022/11/12 05:43:58;;;;;;;6.63;4.13;;;;;;;;;;5109156;28;20208;-34
2022/11/12 05:46:25;;;;;;;4.27;3.83;;;;;;;;;;5110058;28;20192;-34
2022/11/12 05:48:53;;;;;;;6.43;3.87;;;;;;;;;;5103364;28;20199;-33
2022/11/12 05:51:20;;;;;;;7.30;4.37;;;;;;;;;;5102423;28;20216;-35
2022/11/12 05:53:47;;;;;;;4.10;3.73;;;;;;;;;;5105775;28;20200;-35
2022/11/12 05:56:14;;;;;;;4.87;4.07;;;;;;;;;;5110401;28;20199;-32
2022/11/12 05:58:43;;;;;;;6.33;4.27;;;;;;;;;;5191209;22;20228;-33
2022/11/12 06:01:10;;;;;;;3.73;3.33;;;;;;;;;;5112543;27;20223;-31
2022/11/12 06:03:37;;;;;;;3.93;3.57;;;;;;;;;;5122350;27;20200;-33
2022/11/12 06:06:04;;;;;;;5.13;4.10;;;;;;;;;;5102639;28;20428;-31
2022/11/12 06:08:32;;;;;;;4.07;3.67;;;;;;;;;;5112820;28;20302;-31
2022/11/12 06:10:59;;;;;;;4.80;3.87;;;;;;;;;;5117773;27;20303;-31
2022/11/12 06:13:26;;;;;;;4.50;3.63;;;;;;;;;;5110524;27;20199;-34
2022/11/12 06:15:55;;;;;;;4.27;3.37;;;;;;;;;;5111240;27;20291;-33
2022/11/12 06:18:23;;;;;;;6.63;3.67;;;;;;;;;;5114536;27;20197;-35
2022/11/12 06:21:18;;;;;;;19.30;13.23;;;;;;;;;;5096750;27;20226;-31
2022/11/12 06:23:40;;;;;;;4.50;4.10;;;;;;;;;;5109182;28;20211;-34
2022/11/12 06:26:07;;;;;;;4.00;3.60;;;;;;;;;;5111131;28;20207;-31
2022/11/12 06:28:35;;;;;;;3.97;3.17;;;;;;;;;;5100634;28;20204;-32
2022/11/12 06:31:03;;;;;;;5.20;2.97;;;;;;;;;;5117942;28;20272;-33
2022/11/12 06:33:31;;;;;;;3.30;3.00;;;;;;;;;;5106267;28;20211;-30
2022/11/12 06:36:01;;;;;;;4.03;3.60;;;;;;;;;;5099978;28;20211;-33
2022/11/12 06:38:30;;;;;;;3.20;2.90;;;;;;;;;;5112312;28;20195;-29
2022/11/12 06:40:57;;;;;;;2.97;2.77;;;;;;;;;;5131745;27;20222;-33
2022/11/12 06:43:25;;;;;;;4.50;3.60;;;;;;;;;;5118068;27;20290;-32
2022/11/12 06:45:52;;;;;;;3.43;3.10;;;;;;;;;;5129111;27;20203;-30
2022/11/12 06:48:20;;;;;;;4.43;3.77;;;;;;;;;;5116789;27;20214;-32
2022/11/12 06:50:48;;;;;;;3.70;3.13;;;;;;;;;;5109398;28;20674;-33
2022/11/12 06:53:15;;;;;;;6.23;3.40;;;;;;;;;;5108787;28;20207;-30
2022/11/12 06:55:47;;;;;;;4.63;3.37;;;;;;;;;;5118616;27;20211;-32
2022/11/12 06:58:14;;;;;;;3.37;3.07;;;;;;;;;;5106618;27;20263;-28
2022/11/12 07:00:41;;;;;;;5.23;3.20;;;;;;;;;;5109448;28;20223;-32
2022/11/12 07:03:09;;;;;;;4.10;3.00;;;;;;;;;;5114656;28;20291;-33
2022/11/12 07:05:38;;;;;;;6.30;2.93;;;;;;;;;;5110824;27;20661;-32
2022/11/12 07:08:05;;;;;;;4.57;3.03;;;;;;;;;;5109782;27;20291;-31
2022/11/12 07:10:32;;;;;;;4.00;3.60;;;;;;;;;;5106040;27;20229;-30
2022/11/12 07:12:59;;;;;;;4.60;3.90;;;;;;;;;;5137007;27;20267;-31
2022/11/12 07:15:26;;;;;;;4.57;3.83;;;;;;;;;;5136022;27;20207;-27
2022/11/12 07:17:54;;;;;;;4.13;3.40;;;;;;;;;;5114148;27;20210;-30
2022/11/12 07:20:21;;;;;;;3.83;3.43;;;;;;;;;;5117917;27;20228;-32
2022/11/12 07:22:49;;;;;;;4.43;4.00;;;;;;;;;;5111030;28;20230;-32
2022/11/12 07:25:16;;;;;;;3.53;3.23;;;;;;;;;;5124564;27;20271;-31
2022/11/12 07:27:44;;;;;;;4.43;3.30;;;;;;;;;;5116885;28;20282;-30
2022/11/12 07:30:12;;;;;;;4.17;3.60;;;;;;;;;;5105000;27;20220;-31
2022/11/12 07:32:39;;;;;;;5.70;4.50;;;;;;;;;;5125092;27;20213;-28
2022/11/12 07:35:06;;;;;;;3.87;3.43;;;;;;;;;;5121308;27;20212;-31
2022/11/12 07:37:35;;;;;;;4.53;3.47;;;;;;;;;;5116396;27;20221;-29
2022/11/12 07:40:03;;;;;;;5.13;3.33;;;;;;;;;;5119506;27;20508;-30
2022/11/12 07:42:33;;;;;;;4.97;3.27;;;;;;;;;;5115797;28;20226;-32
2022/11/12 07:45:00;;;;;;;4.70;3.80;;;;;;;;;;5108113;28;20215;-29
2022/11/12 07:47:27;;;;;;;4.43;3.77;;;;;;;;;;5119111;27;20205;-33
2022/11/12 07:49:55;;;;;;;6.30;4.70;;;;;;;;;;5127258;27;20520;-32
2022/11/12 07:52:22;;;;;;;6.77;4.43;;;;;;;;;;5114801;27;20210;-28
2022/11/12 07:54:49;;;;;;;5.10;4.60;;;;;;;;;;5136224;27;20203;-29
2022/11/12 07:57:18;;;;;;;4.97;4.10;;;;;;;;;;5117514;27;20291;-30
2022/11/12 07:59:45;;;;;;;6.17;3.77;;;;;;;;;;5110787;28;20298;-32
2022/11/12 08:02:12;;;;;;;4.03;3.63;;;;;;;;;;5123819;27;20229;-32
2022/11/12 08:04:39;;;;;;;4.57;3.53;;;;;;;;;;5131582;27;20215;-32
2022/11/12 08:07:06;;;;;;;5.00;3.77;;;;;;;;;;5121072;27;20275;-35
2022/11/12 08:09:33;;;;;;;7.53;4.23;;;;;;;;;;5131089;27;20202;-32
2022/11/12 08:12:00;;;;;;;4.13;3.23;;;;;;;;;;5104300;28;20236;-30
2022/11/12 08:14:29;;;;;;;5.07;4.10;;;;;;;;;;5102253;27;20231;-34
2022/11/12 08:16:56;;;;;;;6.93;4.07;;;;;;;;;;5119428;27;20299;-32
2022/11/12 08:19:23;;;;;;;4.27;3.60;;;;;;;;;;5113622;28;20210;-30
2022/11/12 08:21:50;;;;;;;4.73;3.90;;;;;;;;;;5105125;27;20220;-32
2022/11/12 08:24:17;;;;;;;4.77;4.23;;;;;;;;;;5118897;27;20226;-30
2022/11/12 08:26:46;;;;;;;4.93;3.90;;;;;;;;;;5120742;27;20204;-31
2022/11/12 08:29:13;;;;;;;4.40;4.00;;;;;;;;;;5112358;28;20203;-33
2022/11/12 08:31:41;;;;;;;7.77;4.57;;;;;;;;;;5105942;27;20219;-31
2022/11/12 08:34:11;;;;;;;6.80;4.87;;;;;;;;;;5129897;27;20199;-31
2022/11/12 08:36:39;;;;;;;4.70;3.93;;;;;;;;;;5105111;27;20204;-29
2022/11/12 08:39:07;;;;;;;5.13;4.60;;;;;;;;;;5128944;27;20199;-31
2022/11/12 08:41:34;;;;;;;5.03;4.23;;;;;;;;;;5114710;28;20247;-35
2022/11/12 08:44:01;;;;;;;5.33;4.17;;;;;;;;;;5112995;28;20214;-33
2022/11/12 08:46:29;;;;;;;5.23;4.37;;;;;;;;;;5108156;28;20226;-31
2022/11/12 08:48:57;;;;;;;4.17;3.73;;;;;;;;;;5125802;27;20408;-31
2022/11/12 08:51:24;;;;;;;4.03;3.53;;;;;;;;;;5114060;27;20404;-30
2022/11/12 08:53:52;;;;;;;4.03;3.63;;;;;;;;;;5123444;27;20214;-35
2022/11/12 08:56:19;;;;;;;3.70;3.40;;;;;;;;;;5115636;27;20290;-33
2022/11/12 08:58:46;;;;;;;4.37;3.87;;;;;;;;;;5108847;27;20212;-30
2022/11/12 09:01:13;;;;;;;3.40;2.90;;;;;;;;;;5117888;27;20376;-32
2022/11/12 09:03:41;;;;;;;3.07;2.67;;;;;;;;;;5127844;27;20285;-31
2022/11/12 09:06:09;;;;;;;3.03;2.83;;;;;;;;;;5108794;27;20295;-35
2022/11/12 09:08:37;;;;;;;8.03;3.00;;;;;;;;;;5119720;27;20302;-30
2022/11/12 09:11:04;;;;;;;3.93;3.53;;;;;;;;;;5134727;27;20714;-34
2022/11/12 09:13:31;;;;;;;3.50;3.20;;;;;;;;;;5118752;27;20861;-31
2022/11/12 09:16:02;;;;;;;3.63;3.23;;;;;;;;;;5104253;28;20302;-31
2022/11/12 09:18:31;;;;;;;3.17;2.87;;;;;;;;;;5109467;27;20202;-36
2022/11/12 09:21:02;;;;;;;3.83;3.53;;;;;;;;;;5119194;27;20223;-32
2022/11/12 09:23:30;;;;;;;4.10;3.70;;;;;;;;;;5106022;28;20223;-33
2022/11/12 09:25:57;;;;;;;5.03;3.90;;;;;;;;;;5113065;27;20239;-33
2022/11/12 09:28:35;;;;;;;4.37;3.97;;;;;;;;;;5104754;27;20199;-33
2022/11/12 09:31:03;;;;;;;4.33;3.70;;;;;;;;;;5121336;27;20247;-31
2022/11/12 09:33:31;;;;;;;4.10;3.70;;;;;;;;;;5103103;28;20195;-33
2022/11/12 09:36:01;;;;;;;4.63;4.00;;;;;;;;;;5102082;28;20200;-33
2022/11/12 09:38:28;;;;;;;4.17;3.73;;;;;;;;;;5115516;27;20230;-32
2022/11/12 09:41:10;;;;;;;4.33;3.90;;;;;;;;;;5111108;28;20215;-30
2022/11/12 09:43:40;;;;;;;4.40;3.73;;;;;;;;;;5083678;28;20210;-34
2022/11/12 09:46:09;;;;;;;4.60;4.20;;;;;;;;;;5098440;28;20203;-33
2022/11/12 09:48:48;;;;;;;4.13;3.83;;;;;;;;;;5108562;27;20214;-34
2022/11/12 09:51:22;;;;;;;5.27;4.40;;;;;;;;;;5101228;27;20222;-31
2022/11/12 09:53:52;;;;;;;4.20;3.73;;;;;;;;;;5109645;27;20294;-34
2022/11/12 09:56:21;;;;;;;4.37;3.77;;;;;;;;;;5110785;27;20207;-30
2022/11/12 09:58:50;;;;;;;4.03;3.63;;;;;;;;;;5103063;28;20216;-32
2022/11/12 10:01:18;;;;;;;5.67;4.00;;;;;;;;;;5104901;27;20239;-32
2022/11/12 10:03:51;;;;;;;4.40;4.00;;;;;;;;;;5119338;27;20214;-31
2022/11/12 10:06:20;;;;;;;5.00;3.97;;;;;;;;;;5098574;27;20246;-33
2022/11/12 10:08:50;;;;;;;4.33;3.83;;;;;;;;;;5105143;27;20211;-29
2022/11/12 10:12:30;;;;;;;4.30;3.90;;;;;;;;;;5118359;27;20233;-31
2022/11/12 10:14:34;;;;;;;4.13;3.67;;;;;;;;;;5111225;28;20328;-32
2022/11/12 10:17:05;;;;;;;4.20;3.73;;;;;;;;;;5104507;27;20195;-32
2022/11/12 10:19:43;;;;;;;6.37;4.43;;;;;;;;;;5106192;28;20192;-31
2022/11/12 10:22:22;;;;;;;5.20;4.20;;;;;;;;;;5115624;28;20208;-34
2022/11/12 10:24:49;;;;;;;4.50;4.07;;;;;;;;;;5110158;28;20196;-32
2022/11/12 10:27:18;;;;;;;4.67;4.10;;;;;;;;;;5111026;28;20212;-33
2022/11/12 10:29:52;;;;;;;3.97;3.57;;;;;;;;;;5109015;27;20286;-32
2022/11/12 10:32:19;;;;;;;4.43;3.77;;;;;;;;;;5128750;28;20191;-29
2022/11/12 10:34:46;;;;;;;4.13;3.73;;;;;;;;;;5108922;28;20214;-29
2022/11/12 10:37:15;;;;;;;5.10;4.60;;;;;;;;;;5101417;28;20205;-32
2022/11/12 10:39:46;;;;;;;5.07;4.57;;;;;;;;;;5131139;27;20195;-33
2022/11/12 10:42:14;;;;;;;5.13;4.50;;;;;;;;;;5102022;28;20212;-34
2022/11/12 10:44:42;;;;;;;4.90;4.33;;;;;;;;;;5101719;28;20231;-31
2022/11/12 10:47:22;;;;;;;5.20;4.70;;;;;;;;;;5108688;28;20196;-32
2022/11/12 10:50:14;;;;;;;4.73;4.30;;;;;;;;;;5099951;28;20291;-32
2022/11/12 10:52:53;;;;;;;6.87;4.83;;;;;;;;;;5106731;28;20453;-31
2022/11/12 10:55:21;;;;;;;5.43;4.83;;;;;;;;;;5115358;28;20196;-33
2022/11/12 10:58:00;;;;;;;5.10;4.40;;;;;;;;;;5102466;28;20208;-30
2022/11/12 11:00:28;;;;;;;5.57;4.23;;;;;;;;;;5108036;28;20238;-28
2022/11/12 11:02:56;;;;;;;6.83;5.00;;;;;;;;;;5110357;28;20234;-32
2022/11/12 11:05:31;;;;;;;5.80;4.80;;;;;;;;;;5104372;28;20268;-34
2022/11/12 11:08:06;;;;;;;5.07;4.40;;;;;;;;;;5108212;28;20227;-30
2022/11/12 11:10:35;;;;;;;6.73;4.57;;;;;;;;;;5117748;28;20322;-31
2022/11/12 11:13:18;;;;;;;7.33;5.17;;;;;;;;;;5104695;28;20254;-36
2022/11/12 11:15:58;;;;;;;7.17;4.93;;;;;;;;;;5114439;28;20199;-33
2022/11/12 11:18:27;;;;;;;5.53;4.90;;;;;;;;;;5117585;28;20245;-31
2022/11/12 11:20:57;;;;;;;5.87;5.23;;;;;;;;;;5098360;28;20248;-34
2022/11/12 11:23:27;;;;;;;6.03;4.97;;;;;;;;;;5102973;28;20256;-32
2022/11/12 11:25:55;;;;;;;6.07;4.80;;;;;;;;;;5115082;28;20200;-33
2022/11/12 11:28:25;;;;;;;6.60;5.20;;;;;;;;;;5111575;28;20207;-31
2022/11/12 11:30:54;;;;;;;6.30;5.67;;;;;;;;;;5102046;27;20259;-34
2022/11/12 11:33:33;;;;;;;7.53;6.20;;;;;;;;;;5120310;27;20279;-33
2022/11/12 11:36:05;;;;;;;6.73;5.80;;;;;;;;;;5104632;27;20287;-29
2022/11/12 11:38:37;;;;;;;7.37;5.60;;;;;;;;;;5102125;27;20257;-32
2022/11/12 11:41:09;;;;;;;8.07;5.80;;;;;;;;;;5110132;27;20324;-30
2022/11/12 11:43:41;;;;;;;6.37;5.73;;;;;;;;;;5106165;27;20226;-32
2022/11/12 11:46:15;;;;;;;8.57;6.37;;;;;;;;;;5118379;27;20211;-32
2022/11/12 11:49:02;;;;;;;8.37;6.03;;;;;;;;;;5125824;27;20294;-32
2022/11/12 11:51:37;;;;;;;7.73;6.00;;;;;;;;;;5105637;27;20215;-33
2022/11/12 11:54:10;;;;;;;8.37;6.17;;;;;;;;;;5109062;27;20202;-35
2022/11/12 11:56:40;;;;;;;6.97;5.97;;;;;;;;;;5107409;28;20259;-29
2022/11/12 11:59:19;;;;;;;7.60;5.70;;;;;;;;;;5104965;27;20243;-30
2022/11/12 12:01:55;;;;;;;6.83;5.63;;;;;;;;;;5106081;28;20223;-30
2022/11/12 12:04:42;;;;;;;7.70;5.90;;;;;;;;;;5130200;27;20202;-31
2022/11/12 12:07:14;;;;;;;7.67;5.23;;;;;;;;;;5106024;27;20295;-32
2022/11/12 12:09:45;;;;;;;8.60;6.60;;;;;;;;;;5123645;27;20191;-33
2022/11/12 12:12:17;;;;;;;6.80;5.67;;;;;;;;;;5115813;27;20299;-32
2022/11/12 12:14:50;;;;;;;7.57;5.77;;;;;;;;;;5107162;28;20205;-33
2022/11/12 12:17:25;;;;;;;7.97;5.90;;;;;;;;;;5109283;27;20287;-30
2022/11/12 12:19:57;;;;;;;7.17;5.93;;;;;;;;;;5102991;28;20203;-35
2022/11/12 12:22:26;;;;;;;7.00;5.83;;;;;;;;;;5115613;27;20221;-31
2022/11/12 12:24:55;;;;;;;7.43;5.83;;;;;;;;;;5111381;28;20290;-31
2022/11/12 12:27:25;;;;;;;8.17;5.57;;;;;;;;;;5112089;28;20210;-29
2022/11/12 12:29:53;;;;;;;9.20;5.87;;;;;;;;;;5108050;27;20290;-32
2022/11/12 12:32:23;;;;;;;7.43;5.67;;;;;;;;;;5121100;27;20207;-29
2022/11/12 12:34:53;;;;;;;8.57;6.67;;;;;;;;;;5105299;28;20212;-33
2022/11/12 12:37:25;;;;;;;6.73;6.00;;;;;;;;;;5107161;27;20212;-29
2022/11/12 12:39:54;;;;;;;7.57;5.77;;;;;;;;;;5119200;27;20196;-32
2022/11/12 12:42:23;;;;;;;7.60;5.93;;;;;;;;;;5107468;28;20298;-32
2022/11/12 12:45:03;;;;;;;8.23;6.73;;;;;;;;;;5100640;27;20212;-33
2022/11/12 12:47:32;;;;;;;7.23;5.80;;;;;;;;;;5111458;28;20192;-33
2022/11/12 12:50:00;;;;;;;6.50;5.83;;;;;;;;;;5108205;28;20234;-29
2022/11/12 12:52:29;;;;;;;6.60;5.60;;;;;;;;;;5101231;27;20287;-32
2022/11/12 12:54:57;;;;;;;6.13;5.30;;;;;;;;;;5108657;27;20328;-32
2022/11/12 12:57:33;;;;;;;6.43;5.37;;;;;;;;;;5120564;27;20221;-31
2022/11/12 13:00:19;;;;;;;6.93;5.47;;;;;;;;;;5114465;27;20207;-29
2022/11/12 13:02:47;;;;;;;7.90;5.97;;;;;;;;;;5096481;27;20211;-34
2022/11/12 13:05:24;;;;;;;7.13;6.20;;;;;;;;;;5109044;27;20207;-32
2022/11/12 13:07:53;;;;;;;7.90;6.43;;;;;;;;;;5106062;28;20203;-32
2022/11/12 13:10:54;;;;;;;8.47;6.50;;;;;;;;;;5111147;28;20550;-31
2022/11/12 13:13:29;;;;;;;7.90;6.10;;;;;;;;;;5110695;28;20202;-34
2022/11/12 13:15:56;;;;;;;7.93;6.30;;;;;;;;;;5100710;28;20214;-33
2022/11/12 13:18:42;;;;;;;6.53;5.83;;;;;;;;;;5118861;27;20199;-31
2022/11/12 13:21:10;;;;;;;8.63;6.40;;;;;;;;;;5104414;27;20224;-31
2022/11/12 13:26:45;;;;;;;7.77;6.30;;;;;;;;;;5094730;28;20202;-32
2022/11/12 13:29:18;;;;;;;7.97;6.17;;;;;;;;;;5102501;27;20431;-32
2022/11/12 13:31:46;;;;;;;6.50;5.70;;;;;;;;;;5114717;27;20291;-34
2022/11/12 13:34:14;;;;;;;12.67;6.43;;;;;;;;;;5101216;27;20272;-32
2022/11/12 13:36:41;;;;;;;7.47;6.37;;;;;;;;;;5107272;27;20293;-33
2022/11/12 13:39:15;;;;;;;8.87;5.90;;;;;;;;;;5115653;27;20218;-34
2022/11/12 13:44:28;;;;;;;6.90;6.17;;;;;;;;;;5103069;28;20214;-33
2022/11/12 13:46:55;;;;;;;6.90;6.20;;;;;;;;;;5120228;27;20290;-33
2022/11/12 13:49:22;;;;;;;7.73;6.00;;;;;;;;;;5109207;28;20207;-32
2022/11/12 13:51:52;;;;;;;8.67;5.93;;;;;;;;;;5107103;27;20230;-35
2022/11/12 13:54:27;;;;;;;7.90;6.17;;;;;;;;;;5111875;27;20203;-32
2022/11/12 13:56:54;;;;;;;7.77;6.43;;;;;;;;;;5117985;27;20299;-32
2022/11/12 13:59:22;;;;;;;8.83;6.23;;;;;;;;;;5107896;27;20218;-32
2022/11/12 14:01:50;;;;;;;9.80;6.57;;;;;;;;;;5109931;27;20306;-33
2022/11/12 14:04:19;;;;;;;8.70;7.03;;;;;;;;;;5114688;27;20224;-33
2022/11/12 14:06:47;;;;;;;8.67;6.97;;;;;;;;;;5101691;27;20219;-35
2022/11/12 14:09:25;;;;;;;9.27;7.07;;;;;;;;;;5110465;27;20283;-31
2022/11/12 14:12:03;;;;;;;7.27;6.20;;;;;;;;;;5109934;28;20226;-31
2022/11/12 14:14:36;;;;;;;7.73;6.93;;;;;;;;;;5099893;27;20243;-34
2022/11/12 14:17:09;;;;;;;9.07;6.93;;;;;;;;;;5098727;28;20311;-35
2022/11/12 14:19:44;;;;;;;11.77;7.13;;;;;;;;;;5097401;28;20226;-31
2022/11/12 14:22:14;;;;;;;9.17;6.20;;;;;;;;;;5111324;27;20199;-30
2022/11/12 14:24:41;;;;;;;7.33;5.80;;;;;;;;;;5114350;27;20227;-29
2022/11/12 14:27:23;;;;;;;7.73;6.30;;;;;;;;;;5112581;28;20211;-34
2022/11/12 14:29:50;;;;;;;8.83;6.63;;;;;;;;;;5096871;28;20209;-32
2022/11/12 14:32:17;;;;;;;8.57;6.40;;;;;;;;;;5101177;28;20208;-32
2022/11/12 14:34:44;;;;;;;8.60;6.63;;;;;;;;;;5102518;28;20200;-29
2022/11/12 14:37:23;;;;;;;8.17;6.57;;;;;;;;;;5105432;28;20207;-33
2022/11/12 14:39:50;;;;;;;7.37;6.43;;;;;;;;;;5115123;27;20206;-33
2022/11/12 14:42:17;;;;;;;8.30;6.07;;;;;;;;;;5111746;28;20305;-33
2022/11/12 14:44:45;;;;;;;9.67;6.03;;;;;;;;;;5103366;28;20252;-30
2022/11/12 14:47:13;;;;;;;8.10;6.20;;;;;;;;;;5105771;28;20272;-33
2022/11/12 14:49:41;;;;;;;8.77;5.97;;;;;;;;;;5115309;28;20218;-29
2022/11/12 14:52:11;;;;;;;8.50;6.67;;;;;;;;;;5104534;28;20211;-30
2022/11/12 14:54:42;;;;;;;10.37;6.77;;;;;;;;;;5108173;28;20205;-31
2022/11/12 14:57:12;;;;;;;8.30;6.77;;;;;;;;;;5107162;28;20204;-29
2022/11/12 14:59:39;;;;;;;10.27;7.00;;;;;;;;;;5105070;28;20240;-30
2022/11/12 15:02:11;;;;;;;9.40;6.87;;;;;;;;;;5095221;27;20273;-32
2022/11/12 15:04:39;;;;;;;9.23;6.90;;;;;;;;;;5110719;28;20222;-31
2022/11/12 15:07:06;;;;;;;7.93;6.13;;;;;;;;;;5116779;27;20294;-33
2022/11/12 15:09:35;;;;;;;9.00;6.40;;;;;;;;;;5116032;27;20294;-32
2022/11/12 15:12:03;;;;;;;8.17;6.67;;;;;;;;;;5122260;27;20229;-34
2022/11/12 15:14:31;;;;;;;7.57;6.03;;;;;;;;;;5118319;27;20199;-30
2022/11/12 15:16:59;;;;;;;9.63;6.10;;;;;;;;;;5110318;28;20271;-33
2022/11/12 15:19:28;;;;;;;9.43;7.03;;;;;;;;;;5099110;28;20254;-32
2022/11/12 15:21:56;;;;;;;8.53;6.03;;;;;;;;;;5097427;28;20228;-31
2022/11/12 15:24:29;;;;;;;8.57;6.17;;;;;;;;;;5114867;27;20216;-29
2022/11/12 15:26:57;;;;;;;7.87;5.63;;;;;;;;;;5134462;27;20227;-33
2022/11/12 15:29:26;;;;;;;7.83;5.97;;;;;;;;;;5110992;27;20263;-32
2022/11/12 15:31:57;;;;;;;8.07;6.40;;;;;;;;;;5101213;28;20229;-31